Time;durP1;ratioP1;P1;durP2;ratioP2;P2;SDS_P1;SDS_P2;PMS_P1;PMS_P2;Temp;Humidity;BMP_temperature;BMP_pressure;BME280_temperature;BME280_humidity;BME280_pressure;Samples;Min_cycle;Max_cycle;Signal;HPM_P1;HPM_P2
2023/03/27 00:02:22;;;;;;;7.87;2.00;;;;;;;13.08;61.87;97520.97;4243689;33;33819;-85
2023/03/27 00:04:53;;;;;;;5.87;1.85;;;;;;;12.95;62.45;97522.13;4271382;33;34375;-85
2023/03/27 00:07:21;;;;;;;4.90;2.00;;;;;;;13.11;61.96;97520.03;4259012;33;33741;-85
2023/03/27 00:09:49;;;;;;;4.68;1.90;;;;;;;12.94;62.11;97512.62;4266894;33;34277;-85
2023/03/27 00:12:17;;;;;;;6.80;2.20;;;;;;;13.01;62.19;97511.59;4258204;33;33866;-84
2023/03/27 00:14:45;;;;;;;5.22;1.75;;;;;;;13.32;61.28;97505.66;4254080;33;32810;-86
2023/03/27 00:17:12;;;;;;;6.30;2.17;;;;;;;13.03;61.79;97503.72;4266729;33;34634;-86
2023/03/27 00:19:40;;;;;;;5.10;2.20;;;;;;;13.11;61.79;97499.22;4251924;33;34135;-86
2023/03/27 00:22:08;;;;;;;6.57;2.28;;;;;;;12.98;62.16;97495.19;4269140;33;33289;-85
2023/03/27 00:24:36;;;;;;;5.50;2.37;;;;;;;13.08;62.12;97488.88;4265107;33;34131;-86
2023/03/27 00:27:03;;;;;;;4.70;2.37;;;;;;;12.96;62.33;97479.63;4267822;33;33713;-85
2023/03/27 00:29:32;;;;;;;8.18;2.28;;;;;;;12.99;62.28;97482.12;4265988;33;33598;-84
2023/03/27 00:31:59;;;;;;;6.47;2.50;;;;;;;13.07;62.14;97482.84;4258726;33;33547;-85
2023/03/27 00:34:29;;;;;;;8.63;2.40;;;;;;;13.05;62.22;97484.59;4269540;33;32033;-85
2023/03/27 00:36:57;;;;;;;10.30;2.53;;;;;;;13.17;62.03;97477.41;4268306;33;33822;-84
2023/03/27 00:39:25;;;;;;;4.57;1.95;;;;;;;12.99;62.32;97486.50;4263546;33;34036;-85
2023/03/27 00:41:54;;;;;;;5.90;2.20;;;;;;;13.08;61.23;97468.94;4269505;33;34664;-85
2023/03/27 00:44:33;;;;;;;8.27;2.15;;;;;;;13.07;61.30;97469.81;4270744;33;33402;-85
2023/03/27 00:47:02;;;;;;;6.47;2.67;;;;;;;12.98;61.76;97472.63;4259879;33;34039;-85
2023/03/27 00:49:33;;;;;;;5.55;2.10;;;;;;;12.85;62.19;97468.63;4270575;33;34123;-86
2023/03/27 00:52:02;;;;;;;8.73;2.70;;;;;;;12.71;62.67;97462.87;4267805;33;34705;-86
2023/03/27 00:54:34;;;;;;;6.25;2.70;;;;;;;12.57;62.56;97453.63;4267439;33;34223;-85
2023/03/27 00:57:06;;;;;;;4.62;2.25;;;;;;;12.62;62.94;97451.81;4258719;33;34778;-86
2023/03/27 00:59:37;;;;;;;5.72;2.40;;;;;;;12.38;63.89;97455.78;4247528;33;34663;-85
2023/03/27 01:02:06;;;;;;;7.62;2.90;;;;;;;12.46;63.88;97440.03;4254372;33;34829;-86
2023/03/27 01:04:35;;;;;;;5.12;2.67;;;;;;;12.39;64.42;97444.53;4256228;33;33394;-85
2023/03/27 01:07:05;;;;;;;8.63;3.10;;;;;;;11.93;66.12;97426.44;4265615;33;34728;-84
2023/03/27 01:09:33;;;;;;;5.87;2.58;;;;;;;12.53;63.92;97425.16;4256672;33;34261;-86
2023/03/27 01:12:15;;;;;;;5.32;2.40;;;;;;;12.53;63.95;97425.16;4262191;33;33645;-85
2023/03/27 01:15:40;;;;;;;8.73;2.45;;;;;;;12.22;64.81;97422.41;4268434;33;33201;-86
2023/03/27 01:18:31;;;;;;;6.15;1.98;;;;;;;12.65;63.71;97417.06;4239599;33;33697;-85
2023/03/27 01:21:37;;;;;;;6.65;2.15;;;;;;;12.88;62.70;97414.78;4230281;33;34064;-84
2023/03/27 01:24:04;;;;;;;7.30;2.17;;;;;;;12.70;63.04;97412.63;4269491;33;34342;-85
2023/03/27 01:26:32;;;;;;;6.07;2.20;;;;;;;12.27;64.24;97415.34;4272450;33;33617;-85
2023/03/27 01:29:29;;;;;;;6.78;2.60;;;;;;;12.54;63.62;97408.66;4258755;33;34067;-87
2023/03/27 01:32:16;;;;;;;5.07;2.12;;;;;;;12.37;64.08;97403.88;4246130;33;34141;-85
2023/03/27 01:35:05;;;;;;;6.43;2.40;;;;;;;12.61;63.69;97403.31;4264470;33;33778;-85
2023/03/27 01:37:50;;;;;;;4.68;1.70;;;;;;;12.36;63.81;97394.37;4258812;33;33692;-86
2023/03/27 01:40:28;;;;;;;4.35;2.10;;;;;;;12.34;63.50;97390.94;4258539;33;33528;-85
2023/03/27 01:43:13;;;;;;;4.55;1.85;;;;;;;12.44;63.19;97394.19;4251298;33;35014;-86
2023/03/27 01:46:04;;;;;;;5.87;1.85;;;;;;;12.61;62.74;97389.44;4270987;33;34816;-86
2023/03/27 01:48:36;;;;;;;4.47;1.73;;;;;;;12.46;63.00;97387.19;4271999;33;33265;-86
2023/03/27 01:51:12;;;;;;;5.57;2.30;;;;;;;12.33;63.33;97381.44;4255589;33;33647;-86
2023/03/27 01:53:45;;;;;;;7.60;2.12;;;;;;;12.61;62.75;97374.72;4260465;33;33935;-86
2023/03/27 01:56:25;;;;;;;6.00;2.20;;;;;;;12.54;62.93;97378.34;4259208;33;34335;-86
2023/03/27 01:58:56;;;;;;;4.75;1.65;;;;;;;12.40;63.35;97370.03;4256178;33;34339;-85
2023/03/27 02:01:28;;;;;;;6.80;2.25;;;;;;;12.62;62.60;97376.41;4266083;33;35020;-85
2023/03/27 02:03:58;;;;;;;4.12;1.73;;;;;;;12.62;62.80;97373.81;4256393;33;34266;-84
2023/03/27 02:06:40;;;;;;;5.05;2.10;;;;;;;12.66;62.68;97375.44;4266463;33;33769;-86
2023/03/27 02:09:19;;;;;;;5.70;2.00;;;;;;;12.45;63.08;97380.31;4257016;33;31875;-86
2023/03/27 02:11:55;;;;;;;6.03;2.00;;;;;;;12.12;63.87;97380.16;4239750;33;33615;-86
2023/03/27 02:14:27;;;;;;;4.90;2.05;;;;;;;12.07;63.97;97377.66;4249493;33;34681;-86
2023/03/27 02:16:59;;;;;;;5.62;2.10;;;;;;;11.99;63.94;97374.41;4268382;33;33772;-85
2023/03/27 02:19:51;;;;;;;4.53;1.67;;;;;;;12.12;63.66;97369.78;4249027;33;34395;-85
2023/03/27 02:22:19;;;;;;;5.35;1.85;;;;;;;12.02;63.91;97348.37;4254874;33;33609;-86
2023/03/27 02:25:25;;;;;;;4.93;1.87;;;;;;;12.03;63.86;97342.28;4269404;33;34894;-86
2023/03/27 02:28:11;;;;;;;6.28;2.10;;;;;;;12.28;63.26;97327.00;4254580;33;33613;-86
2023/03/27 02:31:02;;;;;;;5.53;1.73;;;;;;;12.30;63.27;97322.59;4265583;33;32952;-87
2023/03/27 02:33:55;;;;;;;5.80;1.75;;;;;;;12.22;63.31;97313.28;4253791;33;33549;-86
2023/03/27 02:36:33;;;;;;;6.00;2.22;;;;;;;12.43;62.81;97297.19;4270150;33;34927;-86
2023/03/27 02:39:07;;;;;;;5.65;1.80;;;;;;;12.56;62.50;97292.53;4270989;33;34477;-87
2023/03/27 02:41:37;;;;;;;3.70;1.52;;;;;;;12.61;62.06;97283.72;4268298;33;34153;-87
2023/03/27 02:44:16;;;;;;;4.50;2.12;;;;;;;11.51;64.82;97294.03;4266585;33;31080;-86
2023/03/27 02:47:06;;;;;;;5.40;1.75;;;;;;;11.98;62.95;97284.41;4270548;33;32878;-86
2023/03/27 02:49:38;;;;;;;3.35;1.65;;;;;;;11.98;63.44;97281.78;4223092;33;33765;-86
2023/03/27 02:52:10;;;;;;;5.10;1.87;;;;;;;11.96;63.76;97280.13;4266428;33;33417;-85
2023/03/27 02:54:42;;;;;;;4.72;2.10;;;;;;;12.28;63.06;97271.56;4246738;33;34090;-85
2023/03/27 02:57:14;;;;;;;4.10;1.95;;;;;;;12.26;62.98;97274.19;4244347;33;32675;-85
2023/03/27 02:59:48;;;;;;;4.62;2.20;;;;;;;12.16;63.13;97268.38;4257433;33;33616;-87
2023/03/27 03:02:20;;;;;;;4.47;2.58;;;;;;;12.11;63.46;97269.38;4251046;33;34448;-86
2023/03/27 03:05:06;;;;;;;5.62;3.35;;;;;;;12.23;63.38;97265.63;4245661;33;34674;-86
2023/03/27 03:07:36;;;;;;;5.80;3.42;;;;;;;12.14;63.54;97264.94;4261762;33;33721;-86
2023/03/27 03:10:07;;;;;;;6.68;3.45;;;;;;;11.97;63.91;97267.13;4248582;33;33961;-84
2023/03/27 03:12:36;;;;;;;5.18;3.08;;;;;;;12.07;63.68;97260.78;4258440;33;34153;-85
2023/03/27 03:15:07;;;;;;;6.37;3.58;;;;;;;11.68;64.75;97265.97;4270508;33;34130;-85
2023/03/27 03:17:35;;;;;;;7.57;3.33;;;;;;;11.84;64.40;97268.28;4251465;33;34086;-85
2023/03/27 03:20:04;;;;;;;8.05;3.45;;;;;;;11.80;64.55;97264.00;4251031;33;33078;-85
2023/03/27 03:22:32;;;;;;;9.77;3.50;;;;;;;11.88;64.28;97265.56;4246748;33;31882;-86
2023/03/27 03:24:59;;;;;;;6.37;3.00;;;;;;;11.92;64.16;97261.16;4266706;33;34639;-86
2023/03/27 03:27:28;;;;;;;9.38;3.17;;;;;;;11.79;64.36;97265.75;4264031;33;35517;-86
2023/03/27 03:29:55;;;;;;;5.20;2.35;;;;;;;11.93;64.07;97268.03;4267793;33;34896;-87
2023/03/27 03:32:25;;;;;;;6.62;2.25;;;;;;;11.93;63.79;97255.06;4250362;33;34228;-86
2023/03/27 03:34:53;;;;;;;4.22;1.95;;;;;;;12.05;63.52;97257.41;4270606;33;32474;-86
2023/03/27 03:37:20;;;;;;;7.20;2.60;;;;;;;12.05;63.33;97257.41;4270731;33;34191;-86
2023/03/27 03:39:47;;;;;;;7.55;2.45;;;;;;;12.01;63.52;97257.47;4268324;33;33656;-86
2023/03/27 03:42:16;;;;;;;4.80;2.72;;;;;;;12.13;63.24;97252.00;4268062;33;34183;-86
2023/03/27 03:44:50;;;;;;;7.00;2.92;;;;;;;12.02;63.49;97259.22;4267668;33;33500;-87
2023/03/27 03:47:19;;;;;;;6.78;3.12;;;;;;;11.95;63.61;97252.44;4263806;33;34135;-86
2023/03/27 03:49:47;;;;;;;6.75;2.92;;;;;;;12.11;63.12;97246.00;4269148;33;34515;-85
2023/03/27 03:52:14;;;;;;;7.12;3.42;;;;;;;11.79;63.77;97254.50;4262110;33;32973;-86
2023/03/27 03:54:43;;;;;;;7.03;4.30;;;;;;;11.98;63.63;97240.25;4270140;33;33953;-85
2023/03/27 03:57:13;;;;;;;7.95;3.80;;;;;;;11.96;63.60;97248.94;4258425;33;33459;-86
2023/03/27 03:59:41;;;;;;;9.50;4.28;;;;;;;11.99;63.50;97241.94;4267247;33;33630;-85
2023/03/27 04:02:16;;;;;;;7.22;4.65;;;;;;;11.90;63.84;97244.78;4264893;33;33316;-85
2023/03/27 04:04:45;;;;;;;8.88;4.28;;;;;;;11.85;64.14;97251.78;4264975;33;34690;-84
2023/03/27 04:07:16;;;;;;;6.87;4.72;;;;;;;12.05;63.50;97243.56;4266429;33;34067;-85
2023/03/27 04:09:44;;;;;;;8.75;5.28;;;;;;;12.05;63.28;97240.97;4250907;33;34662;-85
2023/03/27 04:12:12;;;;;;;8.02;5.75;;;;;;;11.69;64.21;97252.09;4259162;33;33806;-85
2023/03/27 04:14:40;;;;;;;8.32;4.93;;;;;;;11.96;63.53;97254.16;4259746;33;33792;-86
2023/03/27 04:17:10;;;;;;;7.85;4.45;;;;;;;11.12;65.91;97241.25;4269132;33;34748;-86
2023/03/27 04:19:37;;;;;;;8.27;4.68;;;;;;;11.19;65.98;97251.44;4265376;33;33720;-86
2023/03/27 04:22:06;;;;;;;9.93;5.03;;;;;;;11.34;65.61;97247.69;4257669;33;32388;-85
2023/03/27 04:24:34;;;;;;;7.32;4.20;;;;;;;10.90;67.30;97246.00;4253382;33;33883;-86
2023/03/27 04:27:02;;;;;;;7.37;4.25;;;;;;;10.79;67.67;97238.41;4251853;33;31479;-85
2023/03/27 04:29:32;;;;;;;11.12;5.10;;;;;;;10.79;67.77;97241.00;4268884;33;33982;-86
2023/03/27 04:32:04;;;;;;;8.02;4.20;;;;;;;11.00;67.16;97249.28;4259285;33;32993;-86
2023/03/27 04:34:39;;;;;;;8.15;4.32;;;;;;;11.20;66.67;97239.34;4265263;33;32462;-85
2023/03/27 04:37:07;;;;;;;7.95;4.28;;;;;;;11.19;66.31;97238.50;4273102;33;33843;-86
2023/03/27 04:39:41;;;;;;;9.07;4.50;;;;;;;11.12;66.46;97236.06;4264978;33;35549;-85
2023/03/27 04:42:09;;;;;;;10.30;4.95;;;;;;;11.03;66.69;97231.06;4268235;33;34262;-86
2023/03/27 04:44:37;;;;;;;9.60;5.43;;;;;;;11.11;66.59;97234.34;4269410;33;33895;-86
2023/03/27 04:47:06;;;;;;;10.07;6.45;;;;;;;10.58;68.41;97233.66;4260717;33;33685;-86
2023/03/27 04:49:41;;;;;;;11.40;6.68;;;;;;;10.65;68.48;97232.66;4264418;33;34871;-86
2023/03/27 04:52:13;;;;;;;9.40;6.90;;;;;;;10.76;68.04;97229.84;4269255;33;33123;-87
2023/03/27 04:54:41;;;;;;;10.65;7.15;;;;;;;10.60;68.74;97229.28;4263365;33;32767;-85
2023/03/27 04:57:08;;;;;;;10.20;6.40;;;;;;;10.80;68.08;97234.09;4254097;33;34714;-85
2023/03/27 04:59:36;;;;;;;12.98;7.20;;;;;;;10.66;68.47;97227.44;4253711;33;34346;-85
2023/03/27 05:02:09;;;;;;;10.02;6.90;;;;;;;10.77;68.15;97224.66;4267206;33;32160;-85
2023/03/27 05:04:37;;;;;;;15.63;7.95;;;;;;;10.49;69.06;97224.28;4268154;33;34483;-85
2023/03/27 05:07:06;;;;;;;11.35;7.82;;;;;;;10.31;70.14;97220.31;4272861;33;33675;-87
2023/03/27 05:09:33;;;;;;;12.18;8.18;;;;;;;10.69;68.96;97209.25;4250502;33;32832;-86
2023/03/27 05:12:01;;;;;;;11.25;7.28;;;;;;;10.64;69.35;97205.00;4263015;33;34322;-86
2023/03/27 05:14:32;;;;;;;10.68;6.55;;;;;;;10.80;68.54;97200.41;4269410;33;34088;-85
2023/03/27 05:17:01;;;;;;;11.07;6.30;;;;;;;10.57;69.14;97203.41;4259319;33;34090;-86
2023/03/27 05:19:29;;;;;;;9.85;6.03;;;;;;;10.70;68.73;97210.09;4259852;33;33966;-86
2023/03/27 05:21:57;;;;;;;9.18;5.47;;;;;;;10.30;70.53;97204.78;4261105;33;33332;-87
2023/03/27 05:24:25;;;;;;;7.80;4.87;;;;;;;10.40;70.15;97201.16;4247671;33;34901;-86
2023/03/27 05:26:53;;;;;;;8.50;4.50;;;;;;;10.19;70.65;97210.97;4266462;33;34153;-86
2023/03/27 05:29:22;;;;;;;7.43;3.65;;;;;;;10.28;70.11;97209.13;4269475;33;34082;-87
2023/03/27 05:31:54;;;;;;;6.72;3.20;;;;;;;10.47;69.34;97205.34;4272944;33;33331;-87
2023/03/27 05:34:25;;;;;;;5.97;3.58;;;;;;;10.85;67.73;97208.94;4255652;33;33963;-86
2023/03/27 05:36:54;;;;;;;5.93;3.00;;;;;;;10.84;67.47;97202.06;4246183;33;34766;-87
2023/03/27 05:39:24;;;;;;;4.97;3.00;;;;;;;10.66;67.93;97209.28;4265270;33;34226;-88
2023/03/27 05:41:52;;;;;;;5.80;2.70;;;;;;;10.33;68.87;97197.81;4259660;33;33275;-87
2023/03/27 05:44:22;;;;;;;6.28;3.20;;;;;;;10.33;69.24;97196.94;4265526;33;34534;-88
2023/03/27 05:46:49;;;;;;;6.03;3.70;;;;;;;10.58;68.58;97199.97;4260612;33;35054;-88
2023/03/27 05:49:21;;;;;;;8.70;4.32;;;;;;;10.50;68.86;97200.09;4254462;33;33487;-87
2023/03/27 05:51:49;;;;;;;11.10;5.97;;;;;;;10.54;69.24;97195.72;4269875;33;34246;-87
2023/03/27 05:54:18;;;;;;;11.65;6.70;;;;;;;10.79;68.61;97188.31;4263785;33;34638;-87
2023/03/27 05:56:46;;;;;;;9.98;6.55;;;;;;;10.35;70.29;97190.03;4259306;33;34898;-87
2023/03/27 05:59:14;;;;;;;10.00;6.37;;;;;;;10.14;71.35;97188.63;4245448;33;34253;-87
2023/03/27 06:01:42;;;;;;;11.63;5.85;;;;;;;9.71;72.84;97185.00;4251286;33;34335;-87
2023/03/27 06:04:11;;;;;;;16.52;5.87;;;;;;;10.17;71.05;97191.16;4266404;33;34538;-87
2023/03/27 06:06:39;;;;;;;7.75;5.00;;;;;;;10.19;71.02;97184.22;4245745;33;33713;-87
2023/03/27 06:09:08;;;;;;;11.25;4.90;;;;;;;10.02;71.77;97188.84;4258235;33;33913;-87
2023/03/27 06:11:37;;;;;;;9.25;4.82;;;;;;;10.15;71.32;97180.84;4258650;33;34656;-87
2023/03/27 06:14:06;;;;;;;9.00;4.62;;;;;;;10.26;71.09;97178.06;4245626;33;31949;-87
2023/03/27 06:16:34;;;;;;;8.30;4.35;;;;;;;10.12;71.22;97175.72;4260084;33;34169;-86
2023/03/27 06:19:03;;;;;;;9.93;4.37;;;;;;;10.31;70.84;97175.44;4263758;33;33976;-87
2023/03/27 06:21:30;;;;;;;8.63;3.90;;;;;;;10.32;70.82;97174.53;4259534;33;33602;-87
2023/03/27 06:23:58;;;;;;;7.00;3.78;;;;;;;10.13;71.46;97169.66;4258769;33;33465;-86
2023/03/27 06:26:27;;;;;;;8.43;4.10;;;;;;;10.15;71.45;97169.59;4256927;33;34947;-86
2023/03/27 06:28:55;;;;;;;8.57;4.95;;;;;;;10.59;70.07;97170.56;4265669;33;33573;-85
2023/03/27 06:31:23;;;;;;;9.07;3.58;;;;;;;10.50;70.36;97175.94;4261639;33;34334;-86
2023/03/27 06:33:52;;;;;;;7.97;3.28;;;;;;;10.44;70.49;97169.12;4271482;33;33748;-86
2023/03/27 06:36:20;;;;;;;7.47;3.28;;;;;;;10.56;69.89;97166.28;4268936;33;33708;-85
2023/03/27 06:38:48;;;;;;;6.90;3.42;;;;;;;10.59;69.89;97173.16;4259303;33;34764;-87
2023/03/27 06:41:16;;;;;;;7.82;3.20;;;;;;;10.47;70.04;97166.47;4258118;33;33472;-88
2023/03/27 06:43:45;;;;;;;7.87;3.08;;;;;;;10.76;69.22;97168.50;4258323;33;34658;-87
2023/03/27 06:46:13;;;;;;;6.25;3.08;;;;;;;10.87;68.98;97170.88;4245300;33;34469;-87
2023/03/27 06:48:49;;;;;;;5.82;2.30;;;;;;;10.68;69.37;97176.44;4258566;33;34089;-87
2023/03/27 06:51:21;;;;;;;5.03;2.45;;;;;;;10.31;69.81;97178.88;4269209;33;33223;-86
2023/03/27 06:53:49;;;;;;;6.10;2.65;;;;;;;10.26;70.31;97180.66;4271860;33;33788;-86
2023/03/27 06:56:17;;;;;;;5.55;2.53;;;;;;;10.39;70.00;97182.16;4268758;33;34829;-85
2023/03/27 06:58:46;;;;;;;8.32;2.62;;;;;;;10.48;69.81;97188.91;4264858;33;34756;-86
2023/03/27 07:01:14;;;;;;;6.75;2.50;;;;;;;10.48;69.83;97188.91;4270986;33;33446;-86
2023/03/27 07:03:48;;;;;;;4.97;2.37;;;;;;;10.58;69.62;97193.03;4266517;33;32917;-86
2023/03/27 07:06:18;;;;;;;6.55;2.12;;;;;;;10.59;69.09;97186.97;4259105;33;34161;-86
2023/03/27 07:08:46;;;;;;;6.35;2.62;;;;;;;10.67;68.93;97187.66;4258160;33;34554;-87
2023/03/27 07:11:15;;;;;;;9.50;1.80;;;;;;;10.59;68.88;97191.28;4259640;33;34822;-87
2023/03/27 07:13:44;;;;;;;3.83;1.70;;;;;;;10.66;68.85;97198.06;4268065;33;33996;-87
2023/03/27 07:16:13;;;;;;;6.55;1.70;;;;;;;10.54;68.47;97196.56;4257840;33;35311;-86
2023/03/27 07:18:40;;;;;;;3.45;1.50;;;;;;;10.88;67.63;97191.59;4244896;33;34407;-87
2023/03/27 07:21:08;;;;;;;5.40;2.35;;;;;;;10.90;67.22;97192.41;4268289;33;33288;-87
2023/03/27 07:23:37;;;;;;;6.20;2.53;;;;;;;10.70;68.00;97191.94;4250987;33;33798;-87
2023/03/27 07:26:05;;;;;;;6.35;2.78;;;;;;;10.38;69.72;97189.94;4257919;33;33869;-87
2023/03/27 07:28:37;;;;;;;5.57;2.47;;;;;;;10.71;69.05;97186.72;4257541;33;34408;-87
2023/03/27 07:31:08;;;;;;;7.72;2.40;;;;;;;10.11;71.13;97186.06;4257829;33;34186;-87
2023/03/27 07:33:56;;;;;;;5.00;2.28;;;;;;;10.16;70.62;97192.06;4256165;33;34136;-87
2023/03/27 07:36:25;;;;;;;4.07;2.10;;;;;;;10.14;71.22;97197.25;4259772;33;34010;-86
2023/03/27 07:38:53;;;;;;;4.85;2.03;;;;;;;10.30;70.86;97189.22;4244716;33;33857;-87
2023/03/27 07:41:21;;;;;;;4.32;2.00;;;;;;;10.29;70.02;97193.56;4244710;33;33500;-88
2023/03/27 07:43:51;;;;;;;5.78;2.12;;;;;;;10.75;68.45;97202.22;4244663;33;33009;-87
2023/03/27 07:46:19;;;;;;;4.72;2.08;;;;;;;10.37;69.91;97203.78;4254783;33;87705;-88
2023/03/27 07:48:47;;;;;;;6.03;2.15;;;;;;;10.26;70.33;97203.97;4257486;33;34201;-87
2023/03/27 07:51:16;;;;;;;5.20;1.85;;;;;;;10.12;70.89;97196.44;4257606;33;33970;-87
2023/03/27 07:53:43;;;;;;;3.65;2.12;;;;;;;10.11;70.79;97199.03;4258098;33;33967;-88
2023/03/27 07:56:13;;;;;;;5.65;2.28;;;;;;;10.10;70.37;97193.00;4244824;33;33996;-88
2023/03/27 07:58:41;;;;;;;3.85;1.80;;;;;;;10.34;69.66;97191.75;4258687;33;34522;-87
2023/03/27 08:01:10;;;;;;;4.37;1.83;;;;;;;9.67;72.45;97187.66;4259200;33;33536;-88
2023/03/27 08:03:40;;;;;;;4.03;1.65;;;;;;;9.91;71.14;97186.41;4259493;33;33521;-87
2023/03/27 08:06:08;;;;;;;3.90;1.85;;;;;;;9.42;72.83;97189.75;4246327;33;34340;-87
2023/03/27 08:08:36;;;;;;;3.95;1.87;;;;;;;9.53;71.04;97189.59;4259299;33;33898;-88
2023/03/27 08:11:05;;;;;;;6.47;1.80;;;;;;;9.21;73.27;97202.13;4267497;33;34253;-87
2023/03/27 08:13:45;;;;;;;4.50;1.80;;;;;;;9.35;72.19;97204.50;4261119;33;33570;-87
2023/03/27 08:16:16;;;;;;;3.33;1.58;;;;;;;9.42;71.48;97218.22;4259440;33;34068;-87
2023/03/27 08:18:48;;;;;;;3.78;1.65;;;;;;;9.65;71.10;97220.47;4246297;33;34462;-86
2023/03/27 08:21:16;;;;;;;6.03;1.90;;;;;;;9.99;68.99;97223.38;4246847;33;33149;-88
2023/03/27 08:23:44;;;;;;;5.47;2.30;;;;;;;10.00;69.41;97222.53;4259408;33;33384;-88
2023/03/27 08:26:17;;;;;;;4.35;1.73;;;;;;;9.92;70.07;97229.53;4259069;33;34164;-87
2023/03/27 08:28:45;;;;;;;5.90;2.15;;;;;;;10.03;70.14;97226.78;4246421;33;33974;-87
2023/03/27 08:31:14;;;;;;;4.55;1.80;;;;;;;10.20;70.25;97228.22;4246751;33;33474;-88
2023/03/27 08:33:42;;;;;;;4.22;2.12;;;;;;;10.40;68.97;97216.69;4259178;33;34319;-88
2023/03/27 08:36:10;;;;;;;6.15;1.98;;;;;;;10.46;69.12;97216.59;4259364;33;33766;-88
2023/03/27 08:38:38;;;;;;;5.90;2.00;;;;;;;10.56;69.12;97219.84;4259222;33;34623;-87
2023/03/27 08:41:37;;;;;;;5.12;2.25;;;;;;;10.57;69.28;97222.44;4259134;33;33722;-87
2023/03/27 08:44:13;;;;;;;7.47;3.30;;;;;;;10.69;69.26;97237.75;4259083;33;33802;-87
2023/03/27 08:46:57;;;;;;;7.85;3.80;;;;;;;10.74;69.06;97232.47;4259229;33;33837;-87
2023/03/27 08:49:28;;;;;;;7.72;4.85;;;;;;;10.80;69.06;97239.28;4252368;33;33891;-87
2023/03/27 08:52:00;;;;;;;6.95;4.78;;;;;;;10.68;69.70;97242.94;4234910;33;33587;-87
2023/03/27 08:54:31;;;;;;;8.00;4.55;;;;;;;10.49;70.44;97245.00;4246425;33;33615;-88
2023/03/27 08:56:59;;;;;;;7.85;4.32;;;;;;;10.69;69.71;97237.75;4246574;33;34317;-87
2023/03/27 08:59:30;;;;;;;6.78;3.90;;;;;;;10.42;70.81;97249.47;4259302;33;31722;-87
2023/03/27 09:02:36;;;;;;;8.05;4.35;;;;;;;10.73;69.53;97235.09;4259159;33;33482;-87
2023/03/27 09:05:21;;;;;;;7.37;4.28;;;;;;;10.42;70.88;97235.66;4266101;33;33976;-88
2023/03/27 09:07:58;;;;;;;5.97;3.60;;;;;;;10.92;69.03;97236.47;4256446;33;34147;-88
2023/03/27 09:10:51;;;;;;;8.65;4.40;;;;;;;10.68;70.15;97232.56;4269456;33;32697;-87
2023/03/27 09:13:31;;;;;;;7.50;4.00;;;;;;;10.69;69.99;97227.37;4255851;33;33261;-87
2023/03/27 09:16:03;;;;;;;6.50;3.53;;;;;;;10.53;69.99;97232.84;4254727;33;33601;-86
2023/03/27 09:18:34;;;;;;;7.37;3.65;;;;;;;10.76;69.46;97237.62;4244182;33;33774;-87
2023/03/27 09:21:08;;;;;;;4.50;2.78;;;;;;;10.54;69.83;97235.44;4258804;33;34161;-87
2023/03/27 09:23:42;;;;;;;5.87;2.10;;;;;;;9.82;72.80;97243.50;4235244;33;32743;-87
2023/03/27 09:26:19;;;;;;;4.57;2.65;;;;;;;10.13;70.90;97242.16;4234189;33;34129;-87
2023/03/27 09:29:20;;;;;;;6.05;3.12;;;;;;;9.69;72.48;97242.81;4246215;33;33449;-86
2023/03/27 09:31:51;;;;;;;7.47;3.70;;;;;;;9.85;71.96;97236.56;4246182;33;34012;-87
2023/03/27 09:34:27;;;;;;;5.97;3.85;;;;;;;9.54;73.55;97254.25;4246111;33;33233;-87
2023/03/27 09:36:57;;;;;;;7.97;4.95;;;;;;;9.77;73.40;97240.97;4254258;33;33998;-87
2023/03/27 09:39:31;;;;;;;7.53;4.80;;;;;;;9.56;74.40;97249.91;4272894;33;34581;-87
2023/03/27 09:42:05;;;;;;;7.95;6.32;;;;;;;9.56;74.03;97252.50;4246406;33;33657;-87
2023/03/27 09:44:37;;;;;;;10.85;7.07;;;;;;;9.48;74.77;97250.03;4259084;33;34136;-87
2023/03/27 09:47:05;;;;;;;10.65;8.10;;;;;;;9.17;75.64;97256.47;4246787;33;33669;-87
2023/03/27 09:49:33;;;;;;;13.38;9.75;;;;;;;8.72;77.60;97251.81;4251343;33;34001;-87
2023/03/27 09:52:06;;;;;;;11.77;8.50;;;;;;;8.84;78.83;97262.88;4257595;33;34593;-87
2023/03/27 09:54:53;;;;;;;13.07;9.70;;;;;;;8.85;79.08;97268.03;4246562;33;34361;-88
2023/03/27 09:57:21;;;;;;;10.33;8.33;;;;;;;9.21;77.24;97268.50;4258862;33;34766;-88
2023/03/27 10:00:06;;;;;;;13.25;8.93;;;;;;;9.24;77.44;97271.91;4252158;33;35051;-88
2023/03/27 10:02:40;;;;;;;12.77;8.88;;;;;;;8.90;78.98;97275.72;4248611;33;32047;-87
2023/03/27 10:05:18;;;;;;;14.85;10.15;;;;;;;9.11;77.94;97283.25;4259624;33;34203;-87
2023/03/27 10:07:46;;;;;;;16.50;11.00;;;;;;;9.11;78.09;97284.97;4264431;33;34224;-86
2023/03/27 10:10:19;;;;;;;13.60;10.38;;;;;;;9.08;78.50;97292.75;4262773;33;33988;-88
2023/03/27 10:12:55;;;;;;;13.00;10.90;;;;;;;9.06;77.82;97297.97;4245773;33;33176;-87
2023/03/27 10:15:37;;;;;;;13.57;10.88;;;;;;;9.17;77.22;97295.25;4266692;33;33808;-88
2023/03/27 10:18:25;;;;;;;12.48;9.20;;;;;;;8.84;78.40;97299.06;4266095;33;33614;-88
2023/03/27 10:21:01;;;;;;;12.37;8.93;;;;;;;9.10;77.45;97299.62;4253659;33;35176;-87
2023/03/27 10:23:40;;;;;;;11.30;8.18;;;;;;;9.37;76.67;97300.19;4267271;33;34213;-87
2023/03/27 10:26:16;;;;;;;9.25;6.50;;;;;;;9.21;77.48;97294.34;4252908;33;33329;-88
2023/03/27 10:28:47;;;;;;;;;;;;;;;9.24;77.21;97297.75;4255992;33;34703;-88
2023/03/27 10:31:32;;;;;;;9.40;5.68;;;;;;;9.19;77.23;97303.84;4246619;33;34295;-88
2023/03/27 10:34:02;;;;;;;8.13;5.05;;;;;;;9.36;76.53;97308.81;4269718;33;33530;-88
2023/03/27 10:36:36;;;;;;;9.13;4.20;;;;;;;9.35;75.54;97304.50;4264244;33;34576;-88
2023/03/27 10:39:12;;;;;;;10.00;3.75;;;;;;;9.66;74.53;97313.59;4269231;33;34863;-88
2023/03/27 10:41:41;;;;;;;6.05;3.70;;;;;;;9.80;73.81;97330.66;4263667;33;35176;-88
2023/03/27 10:44:28;;;;;;;5.40;2.97;;;;;;;9.78;73.70;97316.91;4244933;33;33269;-88
2023/03/27 10:46:57;;;;;;;9.85;2.95;;;;;;;9.86;72.77;97322.81;4254120;33;33249;-88
2023/03/27 10:49:42;;;;;;;4.75;2.30;;;;;;;9.75;72.97;97326.41;4258136;33;34628;-88
2023/03/27 10:52:30;;;;;;;6.07;2.40;;;;;;;9.80;72.98;97321.16;4269196;33;34145;-88
2023/03/27 10:55:30;;;;;;;4.97;2.42;;;;;;;9.50;73.71;97319.84;4271981;33;33570;-88
2023/03/27 10:58:04;;;;;;;6.07;3.20;;;;;;;9.88;72.22;97316.72;4271944;33;33464;-88
2023/03/27 11:00:36;;;;;;;6.80;3.30;;;;;;;9.35;73.57;97330.38;4257890;33;33892;-88
2023/03/27 11:03:13;;;;;;;6.68;3.20;;;;;;;9.81;72.36;97319.41;4245288;33;34112;-87
2023/03/27 11:05:47;;;;;;;6.40;3.03;;;;;;;9.78;71.48;97322.06;4252298;33;33700;-88
2023/03/27 11:08:26;;;;;;;7.82;4.05;;;;;;;9.55;72.52;97333.59;4271826;33;34294;-87
2023/03/27 11:10:56;;;;;;;12.70;8.63;;;;;;;10.05;70.76;97320.81;4253232;33;33754;-87
2023/03/27 11:13:27;;;;;;;18.05;12.70;;;;;;;9.46;72.07;97331.94;4258870;33;33726;-83
2023/03/27 11:16:44;;;;;;;24.55;19.12;;;;;;;8.85;75.36;97339.53;4255445;33;34533;-87
2023/03/27 11:19:22;;;;;;;28.83;22.92;;;;;;;8.71;76.74;97319.88;4258621;33;33529;-87
2023/03/27 11:22:01;;;;;;;26.55;20.90;;;;;;;8.77;76.78;97332.69;4259544;33;33906;-87
2023/03/27 11:24:48;;;;;;;27.33;21.48;;;;;;;8.99;75.41;97332.50;4254240;33;34889;-87
2023/03/27 11:27:40;;;;;;;28.02;21.25;;;;;;;8.73;76.34;97331.03;4244731;33;33932;-87
2023/03/27 11:30:21;;;;;;;27.87;19.85;;;;;;;8.51;77.50;97338.09;4253897;33;33582;-87
2023/03/27 11:32:58;;;;;;;27.90;21.52;;;;;;;8.74;77.02;97348.22;4265642;33;34490;-87
2023/03/27 11:35:35;;;;;;;26.75;19.95;;;;;;;8.87;76.96;97353.31;4259520;33;34256;-87
2023/03/27 11:38:13;;;;;;;33.50;20.98;;;;;;;8.97;74.81;97340.25;4259103;33;33670;-87
2023/03/27 11:40:44;;;;;;;25.23;20.60;;;;;;;8.81;76.01;97338.69;4260725;33;34237;-87
2023/03/27 11:43:13;;;;;;;25.55;20.48;;;;;;;9.13;75.34;97338.38;4260031;33;34770;-87
2023/03/27 11:45:49;;;;;;;27.05;21.17;;;;;;;9.17;75.82;97355.56;4250187;33;35039;-87
2023/03/27 11:48:42;;;;;;;25.95;19.65;;;;;;;9.10;75.58;97335.81;4252579;33;33507;-87
2023/03/27 11:51:19;;;;;;;25.83;20.35;;;;;;;8.95;76.21;97343.75;4258045;33;34346;-87
2023/03/27 11:53:58;;;;;;;26.85;20.33;;;;;;;8.98;76.58;97351.47;4273414;33;34861;-87
2023/03/27 11:56:34;;;;;;;24.67;18.87;;;;;;;8.96;75.23;97350.63;4247088;33;35015;-87
2023/03/27 11:59:10;;;;;;;26.30;18.48;;;;;;;9.18;74.11;97343.50;4246747;33;31965;-85
2023/03/27 12:01:45;;;;;;;24.58;18.98;;;;;;;9.50;72.37;97351.72;4261542;33;32926;-86
2023/03/27 12:04:50;;;;;;;24.02;18.60;;;;;;;9.15;73.16;97335.78;4259613;33;33936;-86